Time;durP1;ratioP1;P1;durP2;ratioP2;P2;SDS_P1;SDS_P2;PMS_P1;PMS_P2;Temp;Humidity;BMP_temperature;BMP_pressure;BME280_temperature;BME280_humidity;BME280_pressure;Samples;Min_cycle;Max_cycle;Signal;HPM_P1;HPM_P2
2023/05/05 00:01:14;;;;;;;3.30;1.80;;;;;;;13.48;69.19;95574.28;4325805;32;20197;-58
2023/05/05 00:03:41;;;;;;;1.50;1.50;;;;;;;13.53;68.91;95563.47;4331339;32;20309;-58
2023/05/05 00:06:07;;;;;;;1.87;1.60;;;;;;;13.49;70.07;95562.53;4316178;32;20200;-58
2023/05/05 00:08:32;;;;;;;1.33;1.30;;;;;;;13.42;69.78;95564.84;4329780;32;20194;-58
2023/05/05 00:10:59;;;;;;;2.53;2.33;;;;;;;13.47;69.56;95564.72;4307477;32;20202;-58
2023/05/05 00:13:24;;;;;;;2.10;2.00;;;;;;;13.49;69.66;95561.75;4326081;32;20240;-58
2023/05/05 00:15:51;;;;;;;1.93;1.83;;;;;;;13.50;69.72;95558.78;4337347;32;20201;-57
2023/05/05 00:18:18;;;;;;;2.00;1.90;;;;;;;13.50;69.53;95564.13;4337231;32;20218;-57
2023/05/05 00:20:46;;;;;;;1.30;1.30;;;;;;;13.30;70.68;95561.94;4340210;32;20205;-59
2023/05/05 00:23:11;;;;;;;5.40;1.87;;;;;;;13.33;70.79;95566.66;4320334;32;20193;-58
2023/05/05 00:25:37;;;;;;;1.40;1.40;;;;;;;13.38;70.82;95558.53;4307928;32;20212;-58
2023/05/05 00:28:02;;;;;;;2.77;2.57;;;;;;;13.22;71.54;95560.00;4318633;32;20197;-58
2023/05/05 00:30:28;;;;;;;1.40;1.40;;;;;;;13.16;71.65;95561.22;4341186;32;20209;-58
2023/05/05 00:32:54;;;;;;;1.70;1.63;;;;;;;13.32;71.38;95559.75;4310749;32;20202;-58
2023/05/05 00:35:24;;;;;;;1.60;1.50;;;;;;;13.16;72.00;95559.34;4338688;32;20189;-58
2023/05/05 00:37:49;;;;;;;1.73;1.63;;;;;;;13.12;72.38;95554.88;4318574;32;20190;-58
2023/05/05 00:40:17;;;;;;;3.83;2.30;;;;;;;13.12;72.32;95560.22;4339984;32;20307;-58
2023/05/05 00:42:44;;;;;;;4.07;2.40;;;;;;;13.13;72.35;95553.78;4316958;32;20206;-58
2023/05/05 00:45:11;;;;;;;1.30;1.30;;;;;;;13.15;72.35;95557.75;4327300;32;20266;-57
2023/05/05 00:47:37;;;;;;;1.33;1.23;;;;;;;13.21;72.16;95553.88;4351063;32;20204;-57
2023/05/05 00:50:08;;;;;;;4.90;2.07;;;;;;;13.14;73.05;95561.47;4335693;32;20297;-56
2023/05/05 00:52:35;;;;;;;1.60;1.50;;;;;;;13.03;72.89;95560.94;4315362;32;20214;-58
2023/05/05 00:55:01;;;;;;;2.13;2.03;;;;;;;13.00;73.48;95564.22;4340562;32;20250;-55
2023/05/05 00:57:27;;;;;;;2.17;2.00;;;;;;;12.97;73.09;95556.81;4339898;32;20193;-56
2023/05/05 00:59:53;;;;;;;1.30;1.30;;;;;;;13.11;72.93;95550.66;4347264;32;20204;-57
2023/05/05 01:02:19;;;;;;;2.13;2.03;;;;;;;13.08;73.03;95546.72;4319608;32;20328;-58
2023/05/05 01:04:44;;;;;;;1.53;1.43;;;;;;;13.00;73.20;95540.25;4302763;32;20260;-58
2023/05/05 01:07:40;;;;;;;1.70;1.60;;;;;;;13.01;73.42;95552.47;4322785;32;20232;-57
2023/05/05 01:10:24;;;;;;;1.80;1.70;;;;;;;13.05;73.29;95542.78;4285129;32;20292;-58
2023/05/05 01:13:08;;;;;;;1.07;1.07;;;;;;;13.01;73.67;95539.16;4343759;32;20208;-58
2023/05/05 01:15:39;;;;;;;2.47;2.33;;;;;;;12.99;74.04;95538.66;4363126;32;20236;-58
2023/05/05 01:18:12;;;;;;;0.93;0.93;;;;;;;12.97;74.11;95537.41;4344326;32;20188;-58
2023/05/05 01:21:08;;;;;;;1.47;1.43;;;;;;;13.02;73.92;95532.75;4337837;32;20185;-58
2023/05/05 01:23:53;;;;;;;1.03;1.03;;;;;;;12.95;74.69;95539.56;4337024;32;20205;-58
2023/05/05 01:26:18;;;;;;;1.47;1.47;;;;;;;12.94;75.22;95538.78;4288525;32;20198;-58
2023/05/05 01:28:56;;;;;;;1.60;1.50;;;;;;;12.85;75.78;95542.50;4300134;33;21851;-57
2023/05/05 01:31:50;;;;;;;1.70;1.60;;;;;;;12.90;75.85;95540.47;4271379;33;20198;-58
2023/05/05 01:34:35;;;;;;;23.27;2.10;;;;;;;12.84;76.61;95540.91;4284716;33;22952;-57
2023/05/05 01:37:11;;;;;;;1.53;1.47;;;;;;;12.76;76.91;95539.75;4308040;33;20338;-58
2023/05/05 01:39:40;;;;;;;1.27;1.27;;;;;;;12.95;76.38;95540.34;4311919;33;20197;-58
2023/05/05 01:42:09;;;;;;;2.57;2.00;;;;;;;12.91;76.66;95539.38;4292708;33;20206;-59
2023/05/05 01:44:37;;;;;;;1.40;1.37;;;;;;;12.82;76.98;95533.22;4298665;33;20194;-58
2023/05/05 01:47:05;;;;;;;1.80;1.70;;;;;;;12.84;76.87;95531.03;4295094;33;20281;-58
2023/05/05 01:49:34;;;;;;;1.93;1.80;;;;;;;12.70;77.58;95540.94;4314470;33;20206;-56
2023/05/05 01:52:03;;;;;;;1.73;1.57;;;;;;;12.74;78.08;95531.28;4272681;33;20245;-57
2023/05/05 01:54:32;;;;;;;1.70;1.60;;;;;;;12.79;77.79;95538.34;4285951;33;20245;-58
2023/05/05 01:56:58;;;;;;;1.00;1.00;;;;;;;12.78;77.75;95537.56;4304102;32;20248;-58
2023/05/05 01:59:26;;;;;;;1.57;1.53;;;;;;;12.86;77.51;95531.53;4348733;32;20197;-58
2023/05/05 02:01:53;;;;;;;1.33;1.27;;;;;;;12.60;78.38;95541.19;4322999;32;20193;-57
2023/05/05 02:04:21;;;;;;;1.60;1.50;;;;;;;12.59;78.57;95537.72;4351562;32;20276;-58
2023/05/05 02:06:50;;;;;;;1.07;1.07;;;;;;;12.71;78.01;95542.50;4306700;32;20231;-58
2023/05/05 02:09:16;;;;;;;1.70;1.53;;;;;;;12.48;79.03;95541.69;4326535;32;20286;-58
2023/05/05 02:11:43;;;;;;;1.20;1.20;;;;;;;12.57;78.55;95547.09;4336331;32;20189;-57
2023/05/05 02:14:11;;;;;;;18.90;1.30;;;;;;;12.61;79.00;95542.75;4347015;32;20189;-57
2023/05/05 02:16:40;;;;;;;1.80;1.70;;;;;;;12.65;78.28;95543.75;4315240;32;20204;-58
2023/05/05 02:19:06;;;;;;;1.40;1.40;;;;;;;12.71;78.52;95547.84;4306639;32;20198;-58
2023/05/05 02:21:32;;;;;;;1.07;1.07;;;;;;;12.64;78.18;95542.16;4319465;32;20219;-58
2023/05/05 02:23:58;;;;;;;1.40;1.30;;;;;;;12.59;79.01;95542.28;4352018;32;20212;-58
2023/05/05 02:26:28;;;;;;;3.47;1.63;;;;;;;12.64;79.05;95542.16;4323095;32;20189;-57
2023/05/05 02:29:18;;;;;;;2.13;2.03;;;;;;;12.60;79.18;95543.84;4335340;32;20204;-57
2023/05/05 02:31:47;;;;;;;1.80;1.70;;;;;;;12.61;78.90;95540.09;4333198;32;20219;-58
2023/05/05 02:34:20;;;;;;;0.97;0.97;;;;;;;12.49;79.29;95550.47;4330660;32;20231;-58
2023/05/05 02:36:51;;;;;;;3.63;1.53;;;;;;;12.54;79.29;95547.69;4333260;32;20275;-57
2023/05/05 02:39:26;;;;;;;1.17;1.17;;;;;;;12.57;79.13;95541.78;4322374;32;20220;-58
2023/05/05 02:41:54;;;;;;;1.80;1.47;;;;;;;12.45;79.63;95549.50;4329807;32;20212;-57
2023/05/05 02:44:23;;;;;;;0.97;0.97;;;;;;;12.54;79.54;95545.81;4312629;32;20211;-58
2023/05/05 02:46:49;;;;;;;1.47;1.37;;;;;;;12.51;79.74;95542.97;4343907;32;20227;-57
2023/05/05 02:49:15;;;;;;;1.43;1.33;;;;;;;12.55;79.59;95543.94;4359783;32;20311;-56
2023/05/05 02:51:40;;;;;;;6.03;1.50;;;;;;;12.48;79.97;95543.56;4331690;32;20244;-58
2023/05/05 02:54:07;;;;;;;1.70;1.60;;;;;;;12.54;79.91;95545.03;4322717;32;20208;-58
2023/05/05 02:56:52;;;;;;;1.80;1.70;;;;;;;12.48;80.62;95543.56;4312961;32;20237;-58
2023/05/05 02:59:40;;;;;;;1.93;1.83;;;;;;;12.54;80.01;95540.50;4327468;32;20328;-58
2023/05/05 03:02:48;;;;;;;1.60;1.50;;;;;;;12.57;79.73;95545.22;4331948;32;20225;-58
2023/05/05 03:05:20;;;;;;;0.80;0.80;;;;;;;12.39;80.82;95541.63;4312266;33;20202;-58
2023/05/05 03:07:55;;;;;;;1.53;1.43;;;;;;;12.47;80.62;95542.00;4301821;33;20281;-55
2023/05/05 03:10:26;;;;;;;2.57;1.57;;;;;;;12.54;80.42;95542.37;4305656;33;20198;-58
2023/05/05 03:12:56;;;;;;;1.23;1.23;;;;;;;12.48;80.97;95540.91;4302266;33;20238;-58
2023/05/05 03:15:27;;;;;;;1.70;1.70;;;;;;;12.30;81.45;95548.72;4312680;32;20194;-57
2023/05/05 03:17:55;;;;;;;1.23;1.23;;;;;;;12.42;81.07;95548.22;4330709;32;20203;-58
2023/05/05 03:20:22;;;;;;;3.20;1.30;;;;;;;12.46;81.01;95546.56;4333217;32;20209;-58
2023/05/05 03:22:47;;;;;;;5.00;2.00;;;;;;;12.27;81.62;95551.97;4327069;32;20243;-58
2023/05/05 03:25:13;;;;;;;2.53;1.73;;;;;;;12.49;80.95;95556.56;4318668;32;20217;-58
2023/05/05 03:27:38;;;;;;;1.47;1.47;;;;;;;12.50;80.83;95552.03;4342101;32;20203;-58
2023/05/05 03:30:04;;;;;;;1.90;1.80;;;;;;;12.48;81.00;95556.87;4356274;32;20182;-59
2023/05/05 03:32:30;;;;;;;0.87;0.87;;;;;;;12.49;80.95;95543.25;4348709;32;20282;-56
2023/05/05 03:35:04;;;;;;;1.30;1.30;;;;;;;12.39;81.69;95546.16;4342473;32;20244;-58
2023/05/05 03:37:31;;;;;;;0.97;0.97;;;;;;;12.51;81.20;95545.62;4349826;32;20263;-58
2023/05/05 03:39:56;;;;;;;1.20;1.20;;;;;;;12.50;81.12;95544.84;4287719;32;20220;-63
2023/05/05 03:42:29;;;;;;;1.10;1.10;;;;;;;12.46;81.34;95546.56;4330341;32;20200;-57
2023/05/05 03:44:56;;;;;;;1.23;1.23;;;;;;;12.51;81.30;95545.62;4332837;32;20261;-58
2023/05/05 03:47:23;;;;;;;2.20;1.37;;;;;;;12.55;81.02;95547.41;4345434;32;20200;-58
2023/05/05 03:49:48;;;;;;;1.50;1.50;;;;;;;12.50;81.26;95552.81;4344449;32;20208;-58
2023/05/05 03:52:15;;;;;;;0.70;0.70;;;;;;;12.35;81.86;95550.50;4351938;32;20189;-58
2023/05/05 03:54:49;;;;;;;1.33;1.33;;;;;;;12.36;81.93;95547.53;4335042;32;20396;-58
2023/05/05 03:57:14;;;;;;;2.50;1.57;;;;;;;12.43;81.72;95549.00;4362020;32;20196;-57
2023/05/05 03:59:39;;;;;;;1.53;1.43;;;;;;;12.34;81.83;95552.38;4342413;32;20193;-58
2023/05/05 04:02:05;;;;;;;2.97;1.80;;;;;;;12.27;82.11;95551.97;4348905;32;20234;-58
2023/05/05 04:04:30;;;;;;;0.93;0.93;;;;;;;12.37;81.80;95548.31;4321348;32;20244;-58
2023/05/05 04:06:55;;;;;;;1.73;1.63;;;;;;;12.41;81.37;95551.97;4334808;32;20227;-63
2023/05/05 04:09:21;;;;;;;1.87;1.77;;;;;;;12.48;81.10;95559.53;4335347;32;20204;-57
2023/05/05 04:11:47;;;;;;;1.70;1.60;;;;;;;12.59;80.70;95555.56;4321088;32;20279;-59
2023/05/05 04:14:13;;;;;;;0.83;0.83;;;;;;;12.52;81.01;95552.53;4294506;32;20288;-58
2023/05/05 04:16:38;;;;;;;2.63;1.73;;;;;;;12.50;81.36;95563.47;4333744;32;20212;-58
2023/05/05 04:19:04;;;;;;;1.10;1.10;;;;;;;12.50;81.38;95557.34;4330859;32;20197;-59
2023/05/05 04:21:30;;;;;;;1.20;1.10;;;;;;;12.59;81.27;95555.56;4349726;32;20193;-58
2023/05/05 04:23:56;;;;;;;1.57;1.47;;;;;;;12.60;81.32;95562.47;4344970;32;20197;-61
2023/05/05 04:26:22;;;;;;;4.10;2.00;;;;;;;12.61;80.99;95567.50;4363103;32;20239;-59
2023/05/05 04:28:47;;;;;;;2.33;1.87;;;;;;;12.54;81.26;95563.66;4324883;32;20307;-59
2023/05/05 04:31:12;;;;;;;2.57;2.40;;;;;;;12.54;81.68;95563.66;4328514;32;20400;-59
2023/05/05 04:33:40;;;;;;;0.87;0.87;;;;;;;12.50;81.82;95562.69;4346450;32;20205;-57
2023/05/05 04:36:06;;;;;;;1.20;1.20;;;;;;;12.41;82.33;95557.28;4335611;32;20201;-58
2023/05/05 04:38:31;;;;;;;1.40;1.20;;;;;;;12.57;81.83;95565.72;4332171;32;20197;-58
2023/05/05 04:40:58;;;;;;;1.37;1.37;;;;;;;12.58;81.55;95572.63;4317352;32;20189;-59
2023/05/05 04:43:24;;;;;;;1.03;1.03;;;;;;;12.59;81.35;95572.34;4352980;32;20207;-58
2023/05/05 04:45:55;;;;;;;2.03;1.90;;;;;;;12.57;81.49;95571.06;4338866;32;20189;-58
2023/05/05 04:48:20;;;;;;;1.07;1.07;;;;;;;12.63;81.50;95569.88;4344333;32;20212;-58
2023/05/05 04:50:46;;;;;;;2.47;2.00;;;;;;;12.51;82.30;95580.22;4317195;32;20270;-57
2023/05/05 04:53:12;;;;;;;1.70;1.60;;;;;;;12.56;81.98;95580.13;4334443;32;20306;-58
2023/05/05 04:55:38;;;;;;;0.93;0.93;;;;;;;12.63;81.96;95575.19;4332192;32;20185;-58
2023/05/05 04:58:04;;;;;;;1.47;1.37;;;;;;;12.62;82.16;95571.75;4321656;32;20189;-59
2023/05/05 05:00:29;;;;;;;2.03;1.93;;;;;;;12.71;81.96;95574.47;4315442;32;20243;-58
2023/05/05 05:02:55;;;;;;;1.67;1.57;;;;;;;12.78;81.77;95574.06;4325122;32;20198;-58
2023/05/05 05:05:22;;;;;;;1.37;1.37;;;;;;;12.82;81.65;95570.50;4352569;32;20213;-58
2023/05/05 05:07:48;;;;;;;2.17;2.03;;;;;;;13.12;81.05;95579.66;4340015;32;20280;-59
2023/05/05 05:10:17;;;;;;;1.87;1.57;;;;;;;13.24;80.57;95585.25;4334188;32;20193;-58
2023/05/05 05:12:46;;;;;;;1.30;1.23;;;;;;;13.25;80.60;95578.06;4316755;32;20195;-57
2023/05/05 05:15:12;;;;;;;1.40;1.40;;;;;;;13.40;80.33;95588.34;4349099;32;20235;-57
2023/05/05 05:17:37;;;;;;;0.60;0.60;;;;;;;13.41;80.79;95587.25;4351597;32;20245;-58
2023/05/05 05:20:04;;;;;;;1.63;1.53;;;;;;;13.27;81.23;95586.53;4316884;32;20197;-58
2023/05/05 05:22:31;;;;;;;1.40;1.40;;;;;;;13.31;81.35;95585.59;4287325;32;20190;-58
2023/05/05 05:24:56;;;;;;;4.03;1.87;;;;;;;13.31;81.97;95592.81;4315359;32;20253;-59
2023/05/05 05:27:21;;;;;;;1.37;1.37;;;;;;;13.28;82.41;95586.22;4325952;32;20205;-58
2023/05/05 05:29:47;;;;;;;1.37;1.17;;;;;;;13.27;82.43;95594.53;4308008;32;20193;-58
2023/05/05 05:32:14;;;;;;;1.30;1.30;;;;;;;13.31;82.69;95598.94;4344280;32;20193;-59
2023/05/05 05:34:39;;;;;;;2.10;1.40;;;;;;;13.36;82.53;95592.69;4343594;32;20240;-58
2023/05/05 05:37:06;;;;;;;2.83;1.67;;;;;;;13.44;82.55;95591.19;4327864;32;20247;-58
2023/05/05 05:39:31;;;;;;;2.33;1.60;;;;;;;13.46;82.08;95597.78;4327062;32;20240;-58
2023/05/05 05:41:56;;;;;;;1.80;1.70;;;;;;;13.60;81.22;95598.50;4333102;32;20227;-63
2023/05/05 05:44:22;;;;;;;1.17;1.17;;;;;;;13.73;80.98;95586.16;4325342;32;20189;-58
2023/05/05 05:46:47;;;;;;;1.60;1.60;;;;;;;13.80;81.15;95594.50;4341181;32;20239;-58
2023/05/05 05:49:12;;;;;;;1.37;1.37;;;;;;;13.82;80.96;95586.22;4339665;32;20194;-58
2023/05/05 05:51:37;;;;;;;2.93;2.03;;;;;;;13.92;80.35;95588.63;4360736;32;20212;-58
2023/05/05 05:54:03;;;;;;;1.13;1.13;;;;;;;14.00;80.09;95591.31;4339269;32;20264;-58
2023/05/05 05:56:28;;;;;;;2.57;2.07;;;;;;;14.06;80.14;95589.31;4355631;32;20194;-58
2023/05/05 05:58:53;;;;;;;1.20;1.20;;;;;;;14.07;80.62;95597.00;4344054;32;20201;-58
2023/05/05 06:01:20;;;;;;;0.93;0.93;;;;;;;14.20;79.81;95597.19;4326844;32;20197;-58
2023/05/05 06:03:47;;;;;;;1.20;1.20;;;;;;;14.29;79.88;95600.69;4332442;32;20292;-59
2023/05/05 06:06:15;;;;;;;2.63;2.13;;;;;;;14.44;78.74;95595.72;4307756;32;20189;-59
2023/05/05 06:08:40;;;;;;;1.70;1.60;;;;;;;14.54;77.91;95599.22;4303529;32;20194;-59
2023/05/05 06:11:07;;;;;;;5.77;2.00;;;;;;;14.66;77.58;95594.03;4313590;32;20189;-58
2023/05/05 06:13:33;;;;;;;6.10;3.40;;;;;;;14.75;77.06;95597.53;4316761;32;20264;-59
2023/05/05 06:15:59;;;;;;;1.70;1.70;;;;;;;14.74;78.11;95590.59;4333176;32;20197;-52
2023/05/05 06:18:25;;;;;;;9.23;3.07;;;;;;;14.83;77.24;95602.06;4341957;32;20189;-55
2023/05/05 06:20:52;;;;;;;10.03;2.27;;;;;;;15.80;91.09;95611.28;4345579;32;20188;-53
2023/05/05 06:23:17;;;;;;;3.50;1.63;;;;;;;15.98;88.23;95597.88;4321580;32;20192;-54
2023/05/05 06:25:42;;;;;;;19.77;2.27;;;;;;;16.22;82.25;95602.66;4348691;32;20194;-51
2023/05/05 06:28:08;;;;;;;0.90;0.90;;;;;;;16.39;80.67;95595.34;4306446;32;20198;-52
2023/05/05 06:30:33;;;;;;;0.93;0.93;;;;;;;16.58;77.70;95602.16;4353990;32;20239;-53
2023/05/05 06:32:59;;;;;;;1.93;1.83;;;;;;;16.68;76.15;95601.81;4328573;32;20220;-54
2023/05/05 06:35:24;;;;;;;1.63;1.53;;;;;;;16.76;75.56;95609.03;4325971;32;20186;-52
2023/05/05 06:37:49;;;;;;;1.47;1.37;;;;;;;16.84;74.54;95606.28;4333959;32;20190;-51
2023/05/05 06:40:15;;;;;;;1.17;1.17;;;;;;;16.96;73.89;95607.47;4337084;32;20268;-52
2023/05/05 06:42:40;;;;;;;2.33;1.73;;;;;;;17.09;73.34;95606.41;4332910;32;20252;-52
2023/05/05 06:45:06;;;;;;;4.53;2.07;;;;;;;17.12;72.71;95606.53;4334139;32;20193;-54
2023/05/05 06:47:32;;;;;;;12.63;1.90;;;;;;;17.14;72.45;95611.59;4325023;32;20246;-55
2023/05/05 06:49:57;;;;;;;3.57;1.97;;;;;;;17.29;75.73;95605.63;4291016;32;20193;-52
2023/05/05 06:52:22;;;;;;;1.60;1.50;;;;;;;17.44;76.93;95605.03;4310825;32;20212;-53
2023/05/05 06:54:48;;;;;;;1.63;1.53;;;;;;;17.63;78.18;95606.44;4334849;32;20201;-52
2023/05/05 06:57:13;;;;;;;2.43;2.07;;;;;;;17.86;74.45;95604.97;4316758;32;20249;-53
2023/05/05 06:59:38;;;;;;;1.27;1.27;;;;;;;18.11;72.84;95593.13;4343394;32;20237;-59
2023/05/05 07:02:05;;;;;;;1.30;1.20;;;;;;;17.68;67.98;95606.22;4331095;32;20207;-58
2023/05/05 07:04:32;;;;;;;1.07;1.07;;;;;;;17.39;68.55;95596.41;4309651;32;20205;-59
2023/05/05 07:06:57;;;;;;;2.13;2.03;;;;;;;17.13;69.90;95607.34;4341777;32;20209;-61
2023/05/05 07:09:24;;;;;;;0.90;0.90;;;;;;;17.11;71.26;95604.19;4339220;32;20223;-59
2023/05/05 07:11:50;;;;;;;1.80;1.70;;;;;;;16.98;71.70;95605.25;4323541;32;20202;-59
2023/05/05 07:14:15;;;;;;;1.27;1.27;;;;;;;16.96;71.36;95607.47;4318815;32;20194;-59
2023/05/05 07:16:42;;;;;;;0.57;0.57;;;;;;;17.06;70.72;95605.16;4329462;32;20260;-57
2023/05/05 07:19:08;;;;;;;1.53;1.43;;;;;;;17.15;70.62;95611.25;4345487;32;20185;-60
2023/05/05 07:21:34;;;;;;;0.80;0.80;;;;;;;17.16;70.48;95615.50;4305622;32;20245;-60
2023/05/05 07:24:01;;;;;;;4.00;1.43;;;;;;;17.23;71.18;95608.84;4324132;32;20201;-59
2023/05/05 07:26:27;;;;;;;20.43;1.50;;;;;;;17.31;70.61;95607.97;4332704;32;20205;-58
2023/05/05 07:28:54;;;;;;;1.00;1.00;;;;;;;17.45;70.21;95606.59;4337226;32;20209;-59
2023/05/05 07:31:20;;;;;;;0.87;0.87;;;;;;;17.38;70.92;95610.91;4326716;32;20256;-62
2023/05/05 07:33:47;;;;;;;0.90;0.90;;;;;;;17.59;69.97;95614.34;4327002;32;20198;-61
2023/05/05 07:36:15;;;;;;;2.97;2.77;;;;;;;17.72;69.68;95605.25;4311510;32;20249;-51
2023/05/05 07:38:41;;;;;;;6.97;2.40;;;;;;;17.95;71.83;95615.59;4343064;32;20204;-52
2023/05/05 07:41:06;;;;;;;1.70;1.60;;;;;;;18.77;71.31;95603.69;4334747;32;20327;-51
2023/05/05 07:43:32;;;;;;;1.53;1.47;;;;;;;19.51;68.77;95604.31;4282264;32;20365;-53
2023/05/05 07:45:58;;;;;;;3.00;2.50;;;;;;;20.06;66.35;95594.56;4329484;32;20201;-52
2023/05/05 07:48:23;;;;;;;1.47;1.20;;;;;;;20.22;65.46;95603.44;4332615;32;20298;-50
2023/05/05 07:50:48;;;;;;;1.50;1.17;;;;;;;20.55;63.72;95603.91;4299772;33;20236;-52
2023/05/05 07:53:14;;;;;;;0.50;0.43;;;;;;;20.77;61.76;95605.16;4332909;32;20237;-50
2023/05/05 07:55:41;;;;;;;5.70;1.40;;;;;;;20.99;61.09;95598.31;4330237;32;20297;-49
2023/05/05 07:58:07;;;;;;;3.03;0.87;;;;;;;21.12;59.95;95607.06;4318169;32;20264;-50
2023/05/05 08:00:34;;;;;;;1.53;1.43;;;;;;;20.96;59.55;95599.03;4334522;32;20255;-50
2023/05/05 08:03:01;;;;;;;2.03;1.77;;;;;;;21.08;60.53;95593.50;4347612;32;20193;-53
2023/05/05 08:05:28;;;;;;;0.83;0.83;;;;;;;21.20;60.16;95603.41;4337315;32;20205;-55
2023/05/05 08:07:55;;;;;;;0.90;0.90;;;;;;;21.25;59.66;95609.31;4336493;32;20193;-54
2023/05/05 08:10:21;;;;;;;0.97;0.97;;;;;;;21.15;59.30;95606.38;4334363;32;20278;-54
2023/05/05 08:12:49;;;;;;;2.17;1.80;;;;;;;21.10;58.75;95606.62;4317192;32;20193;-55
2023/05/05 08:15:15;;;;;;;0.77;0.77;;;;;;;21.10;59.54;95606.62;4337759;32;20276;-52
2023/05/05 08:17:54;;;;;;;1.30;1.20;;;;;;;20.91;56.50;95599.31;4322898;32;20198;-54
2023/05/05 08:20:20;;;;;;;1.27;1.17;;;;;;;21.02;60.21;95596.81;4330893;32;20223;-54
2023/05/05 08:22:46;;;;;;;1.70;1.23;;;;;;;21.06;59.42;95590.38;4329109;32;20186;-63
2023/05/05 08:25:12;;;;;;;4.90;0.47;;;;;;;21.13;59.75;95585.12;4301635;32;20186;-52
2023/05/05 08:27:40;;;;;;;0.83;0.83;;;;;;;21.24;59.15;95590.75;4290339;32;20292;-55
2023/05/05 08:30:07;;;;;;;1.50;0.87;;;;;;;21.32;59.04;95586.31;4290780;32;20255;-53
2023/05/05 08:32:34;;;;;;;0.50;0.50;;;;;;;21.23;58.37;95583.81;4297760;32;20201;-53
2023/05/05 08:35:04;;;;;;;0.50;0.50;;;;;;;21.30;59.06;95588.56;4321714;32;20198;-54
2023/05/05 08:37:31;;;;;;;0.83;0.83;;;;;;;21.35;58.67;95586.38;4330656;32;20204;-55
2023/05/05 08:39:57;;;;;;;2.77;1.40;;;;;;;21.34;58.65;95586.72;4307317;32;20197;-55
2023/05/05 08:42:24;;;;;;;0.73;0.73;;;;;;;21.25;58.10;95582.31;4333098;32;20290;-54
2023/05/05 08:44:51;;;;;;;0.60;0.60;;;;;;;21.11;57.40;95579.31;4338110;32;20216;-53
2023/05/05 08:47:17;;;;;;;0.80;0.80;;;;;;;21.01;58.89;95581.75;4325450;32;20186;-55
2023/05/05 08:49:45;;;;;;;0.67;0.67;;;;;;;20.52;56.84;95582.25;4330723;32;20244;-54
2023/05/05 08:52:37;;;;;;;0.43;0.43;;;;;;;20.36;58.40;95584.16;4311684;32;20283;-53
2023/05/05 08:55:25;;;;;;;0.77;0.77;;;;;;;20.62;59.59;95581.69;4324026;32;20237;-52
2023/05/05 08:57:56;;;;;;;0.87;0.87;;;;;;;20.71;60.68;95582.28;4271561;33;20198;-62
2023/05/05 09:00:27;;;;;;;0.67;0.67;;;;;;;20.69;59.54;95586.47;4317338;32;20233;-52
2023/05/05 09:02:58;;;;;;;0.83;0.83;;;;;;;20.73;60.61;95588.13;4301601;32;20277;-53
2023/05/05 09:05:24;;;;;;;0.43;0.40;;;;;;;20.71;60.46;95587.69;4306928;32;20202;-62
2023/05/05 09:07:51;;;;;;;0.60;0.60;;;;;;;20.71;60.49;95581.50;4322104;32;20205;-53
2023/05/05 09:10:18;;;;;;;0.43;0.43;;;;;;;20.60;60.17;95589.34;4342750;32;20193;-53
2023/05/05 09:12:45;;;;;;;0.57;0.57;;;;;;;20.59;60.98;95580.47;4340765;32;20193;-54
2023/05/05 09:15:13;;;;;;;0.73;0.73;;;;;;;20.53;60.76;95589.19;4345579;32;22160;-56
2023/05/05 09:17:41;;;;;;;0.63;0.63;;;;;;;20.52;61.21;95580.34;4329864;32;20199;-54
2023/05/05 09:20:12;;;;;;;0.90;0.90;;;;;;;20.47;61.18;95583.28;4345160;32;20211;-53
2023/05/05 09:22:38;;;;;;;0.87;0.87;;;;;;;20.44;59.64;95581.28;4312996;32;20213;-51
2023/05/05 09:25:09;;;;;;;0.83;0.83;;;;;;;20.50;61.24;95585.28;4332466;32;20194;-52
2023/05/05 09:27:35;;;;;;;0.50;0.50;;;;;;;20.52;60.06;95577.63;4323389;32;20216;-51
2023/05/05 09:30:02;;;;;;;0.50;0.50;;;;;;;20.49;60.84;95582.94;4340259;32;20203;-54
2023/05/05 09:32:28;;;;;;;0.90;0.90;;;;;;;20.49;60.45;95586.41;4327911;32;20228;-54
2023/05/05 09:34:59;;;;;;;3.00;0.87;;;;;;;20.30;58.12;95583.62;4324102;32;20204;-54
2023/05/05 09:37:34;;;;;;;0.90;0.90;;;;;;;20.23;61.55;95580.75;4340691;32;20185;-52
2023/05/05 09:40:00;;;;;;;0.60;0.60;;;;;;;20.19;59.53;95575.28;4331907;32;20188;-51
2023/05/05 09:42:26;;;;;;;0.80;0.80;;;;;;;20.29;61.89;95573.19;4336751;32;20233;-52
2023/05/05 09:44:52;;;;;;;0.80;0.60;;;;;;;20.30;61.20;95575.53;4334226;32;20267;-50
2023/05/05 09:47:19;;;;;;;0.53;0.53;;;;;;;20.27;60.11;95576.22;4304879;32;20261;-51
2023/05/05 09:50:01;;;;;;;0.97;0.97;;;;;;;20.32;61.96;95567.91;4333751;32;20259;-55
2023/05/05 09:52:27;;;;;;;1.67;1.27;;;;;;;20.31;61.65;95566.31;4338150;32;20243;-53
2023/05/05 09:54:57;;;;;;;0.50;0.50;;;;;;;20.24;61.30;95564.25;4354576;32;20190;-51
2023/05/05 09:57:30;;;;;;;0.50;0.50;;;;;;;20.35;61.82;95569.91;4321301;32;20283;-53
2023/05/05 09:59:57;;;;;;;0.53;0.53;;;;;;;20.53;61.25;95565.72;4311186;32;20193;-52
2023/05/05 10:02:34;;;;;;;2.27;1.50;;;;;;;20.65;59.63;95558.66;4347177;32;20193;-53
2023/05/05 10:05:05;;;;;;;0.43;0.43;;;;;;;20.61;57.44;95557.78;4323598;32;20201;-51
2023/05/05 10:07:31;;;;;;;1.13;1.13;;;;;;;20.56;58.22;95556.94;4345107;32;20193;-51
2023/05/05 10:09:58;;;;;;;1.17;1.13;;;;;;;20.58;57.05;95565.44;4311191;32;20193;-53
2023/05/05 10:12:24;;;;;;;0.67;0.67;;;;;;;20.66;55.86;95557.50;4317398;32;20201;-51
2023/05/05 10:14:54;;;;;;;2.23;1.13;;;;;;;20.62;57.56;95553.94;4330834;32;20197;-52
2023/05/05 10:17:22;;;;;;;0.83;0.83;;;;;;;20.63;57.98;95550.13;4303739;32;20189;-51
2023/05/05 10:19:55;;;;;;;0.27;0.27;;;;;;;20.65;56.88;95554.03;4339154;32;20185;-51
2023/05/05 10:22:23;;;;;;;0.50;0.50;;;;;;;20.60;57.49;95557.00;4328393;32;20217;-62
2023/05/05 10:25:08;;;;;;;0.87;0.80;;;;;;;20.68;56.19;95553.34;4329908;32;20201;-53
2023/05/05 10:27:41;;;;;;;0.60;0.60;;;;;;;20.73;55.53;95560.38;4335420;32;20197;-51
2023/05/05 10:30:10;;;;;;;0.40;0.40;;;;;;;20.80;56.37;95547.81;4308842;32;20197;-51
2023/05/05 10:32:43;;;;;;;0.83;0.83;;;;;;;20.90;56.20;95549.19;4295192;33;20202;-53
2023/05/05 10:35:14;;;;;;;1.00;1.00;;;;;;;20.87;56.11;95553.38;4309435;32;20266;-52
2023/05/05 10:37:42;;;;;;;0.70;0.70;;;;;;;20.89;56.84;95540.31;4341549;32;20347;-50
2023/05/05 10:40:11;;;;;;;0.70;0.70;;;;;;;20.76;57.09;95544.28;4326391;32;20271;-52
2023/05/05 10:42:39;;;;;;;0.90;0.90;;;;;;;20.95;56.32;95535.41;4312721;32;20229;-53
2023/05/05 10:45:05;;;;;;;0.83;0.83;;;;;;;20.84;57.26;95523.62;4322148;32;20236;-51
2023/05/05 10:47:34;;;;;;;0.50;0.50;;;;;;;20.93;58.28;95529.59;4317147;32;20215;-53
2023/05/05 10:50:30;;;;;;;0.60;0.60;;;;;;;20.96;57.04;95530.81;4318357;32;20185;-53
2023/05/05 10:53:32;;;;;;;0.80;0.80;;;;;;;20.93;57.36;95521.50;4307247;32;20209;-53
2023/05/05 10:56:18;;;;;;;1.43;0.93;;;;;;;20.92;55.30;95525.34;4329042;32;20236;-52
2023/05/05 10:58:45;;;;;;;0.67;0.67;;;;;;;20.74;56.09;95516.09;4330302;32;20296;-50
2023/05/05 11:01:11;;;;;;;1.47;1.23;;;;;;;20.68;55.53;95514.81;4328648;32;20307;-53
2023/05/05 11:03:36;;;;;;;0.50;0.50;;;;;;;20.65;56.01;95510.13;4323308;32;20202;-53
2023/05/05 11:06:07;;;;;;;0.33;0.33;;;;;;;20.73;56.39;95506.44;4314680;32;20339;-55
2023/05/05 11:08:35;;;;;;;0.87;0.87;;;;;;;20.72;54.76;95500.25;4336777;32;20211;-55
2023/05/05 11:11:01;;;;;;;1.07;1.07;;;;;;;20.79;55.33;95499.62;4303313;32;20208;-53
2023/05/05 11:13:28;;;;;;;0.53;0.53;;;;;;;20.90;55.53;95497.94;4334682;32;20216;-51
2023/05/05 11:15:55;;;;;;;0.50;0.50;;;;;;;20.84;56.60;95496.66;4331508;32;20223;-54
2023/05/05 11:18:38;;;;;;;0.67;0.67;;;;;;;20.84;57.34;95497.44;4322885;32;20251;-58
2023/05/05 11:21:16;;;;;;;0.80;0.80;;;;;;;20.83;56.06;95495.09;4342909;32;20201;-53
2023/05/05 11:23:47;;;;;;;0.93;0.93;;;;;;;20.80;56.53;95495.78;4336436;32;20296;-52
2023/05/05 11:26:13;;;;;;;1.17;1.07;;;;;;;20.74;56.88;95489.13;4346243;32;20291;-51
2023/05/05 11:29:00;;;;;;;1.33;1.33;;;;;;;20.66;57.19;95484.72;4318024;32;20228;-53
2023/05/05 11:31:29;;;;;;;0.33;0.33;;;;;;;20.70;56.63;95485.56;4344016;32;20196;-55
2023/05/05 11:34:14;;;;;;;0.77;0.77;;;;;;;20.68;57.40;95482.44;4316497;32;20247;-53
2023/05/05 11:36:40;;;;;;;0.50;0.50;;;;;;;20.62;56.60;95481.16;4336070;32;20215;-55
2023/05/05 11:39:10;;;;;;;1.17;1.17;;;;;;;20.52;60.78;95472.50;4338933;32;20200;-52
2023/05/05 11:42:00;;;;;;;0.20;0.20;;;;;;;20.54;56.83;95474.84;4345888;32;20220;-54